Time;durP1;ratioP1;P1;durP2;ratioP2;P2;SDS_P1;SDS_P2;PMS_P1;PMS_P2;Temp;Humidity;BMP_temperature;BMP_pressure;BME280_temperature;BME280_humidity;BME280_pressure;Samples;Min_cycle;Max_cycle;Signal;HPM_P1;HPM_P2
2022/10/12 00:01:11;;;;;;;24.33;17.77;;;12.00;99.90;;;;;;5092816;28;20031;-76
2022/10/12 00:03:37;;;;;;;32.40;18.90;;;11.90;99.90;;;;;;5093705;28;20028;-76
2022/10/12 00:06:08;;;;;;;25.08;18.85;;;11.90;99.90;;;;;;5093358;28;20020;-76
2022/10/12 00:08:35;;;;;;;22.63;16.40;;;11.80;99.90;;;;;;5093586;28;20384;-76
2022/10/12 00:11:01;;;;;;;26.20;18.13;;;11.80;99.90;;;;;;5093130;28;20481;-75
2022/10/12 00:13:27;;;;;;;25.95;17.10;;;11.70;99.90;;;;;;5093178;28;20032;-75
2022/10/12 00:15:52;;;;;;;32.03;19.83;;;11.70;99.90;;;;;;5093224;28;20032;-76
2022/10/12 00:18:18;;;;;;;26.33;19.02;;;11.60;99.90;;;;;;5074477;28;20476;-75
2022/10/12 00:20:44;;;;;;;30.85;19.85;;;11.60;99.90;;;;;;5092604;28;20032;-76
2022/10/12 00:23:09;;;;;;;39.53;23.17;;;11.60;99.90;;;;;;5092761;28;20032;-76
2022/10/12 00:25:36;;;;;;;31.08;19.73;;;11.60;99.90;;;;;;5092826;28;20028;-76
2022/10/12 00:28:03;;;;;;;26.80;18.75;;;11.50;99.90;;;;;;5093077;28;20035;-78
2022/10/12 00:30:29;;;;;;;30.42;20.13;;;11.50;99.90;;;;;;5092830;28;20110;-76
2022/10/12 00:32:56;;;;;;;28.00;20.90;;;11.40;99.90;;;;;;5093278;28;20020;-76
2022/10/12 00:35:22;;;;;;;30.83;21.10;;;11.40;99.90;;;;;;5092000;28;20032;-76
2022/10/12 00:37:52;;;;;;;35.80;23.77;;;11.30;99.90;;;;;;5084460;28;20397;-76
2022/10/12 00:40:17;;;;;;;35.15;23.17;;;11.40;99.90;;;;;;5092192;28;20028;-76
2022/10/12 00:42:43;;;;;;;35.60;22.58;;;11.40;99.90;;;;;;5092918;28;20036;-76
2022/10/12 00:45:09;;;;;;;30.17;20.85;;;11.30;99.90;;;;;;5057008;28;20043;-76
2022/10/12 00:47:37;;;;;;;28.63;21.30;;;11.30;99.90;;;;;;5093195;28;20031;-76
2022/10/12 00:50:12;;;;;;;28.95;21.10;;;11.30;99.90;;;;;;5092149;28;20052;-77
2022/10/12 00:52:44;;;;;;;30.92;19.38;;;11.20;99.90;;;;;;5089299;28;20078;-76
2022/10/12 00:55:16;;;;;;;26.80;19.17;;;11.20;99.90;;;;;;5091589;28;20032;-76
2022/10/12 00:57:42;;;;;;;24.55;19.23;;;11.10;99.90;;;;;;5092970;28;20032;-76
2022/10/12 01:00:09;;;;;;;36.10;24.40;;;11.10;99.90;;;;;;5091723;28;20034;-76
2022/10/12 01:02:37;;;;;;;39.00;24.80;;;11.10;99.90;;;;;;5092519;28;20388;-76
2022/10/12 01:05:07;;;;;;;33.60;22.90;;;11.10;99.90;;;;;;5092684;28;20024;-76
2022/10/12 01:07:32;;;;;;;30.55;21.55;;;11.10;99.90;;;;;;5092100;28;20465;-75
2022/10/12 01:09:58;;;;;;;27.35;19.98;;;11.10;99.90;;;;;;5092313;28;20036;-75
2022/10/12 01:12:25;;;;;;;31.27;22.42;;;11.00;99.90;;;;;;5091066;28;20100;-75
2022/10/12 01:14:51;;;;;;;35.33;23.27;;;11.00;99.90;;;;;;5092146;28;20035;-75
2022/10/12 01:17:31;;;;;;;48.15;26.60;;;11.00;99.90;;;;;;5091334;28;20032;-75
2022/10/12 01:20:19;;;;;;;35.97;22.17;;;11.00;99.90;;;;;;5092328;28;20066;-74
2022/10/12 01:23:10;;;;;;;32.25;21.75;;;11.00;99.90;;;;;;5079320;28;20102;-74
2022/10/12 01:25:55;;;;;;;38.25;23.27;;;11.00;99.90;;;;;;5073778;28;20031;-75
2022/10/12 01:28:33;;;;;;;38.55;21.92;;;11.00;99.90;;;;;;5091220;28;20055;-75
2022/10/12 01:31:06;;;;;;;33.95;22.40;;;11.00;99.90;;;;;;5091574;28;20028;-74
2022/10/12 01:33:40;;;;;;;37.00;24.83;;;10.90;99.90;;;;;;5092182;28;20032;-75
2022/10/12 01:36:16;;;;;;;39.65;24.23;;;10.90;99.90;;;;;;5087401;28;20038;-75
2022/10/12 01:38:52;;;;;;;37.40;23.90;;;10.90;99.90;;;;;;5083431;28;20036;-74
2022/10/12 01:41:38;;;;;;;30.98;21.85;;;10.90;99.90;;;;;;5090476;28;20030;-75
2022/10/12 01:44:04;;;;;;;40.75;25.80;;;10.90;99.90;;;;;;5091721;28;20052;-76
2022/10/12 01:46:29;;;;;;;30.80;21.83;;;10.90;99.90;;;;;;5091517;28;20055;-75
2022/10/12 01:48:58;;;;;;;30.27;22.52;;;10.90;99.90;;;;;;5092039;28;20056;-75
2022/10/12 01:51:34;;;;;;;37.95;24.25;;;10.90;99.90;;;;;;5090697;28;20062;-75
2022/10/12 01:54:05;;;;;;;39.05;25.55;;;10.90;99.90;;;;;;5090339;28;20089;-75
2022/10/12 01:56:47;;;;;;;33.47;24.13;;;10.90;99.90;;;;;;5091333;28;20024;-75
2022/10/12 01:59:37;;;;;;;32.88;21.83;;;10.90;99.90;;;;;;5090612;28;20032;-74
2022/10/12 02:02:16;;;;;;;;;;;10.90;99.90;;;;;;5091376;28;20059;-75
2022/10/12 02:04:51;;;;;;;32.53;21.37;;;10.80;99.90;;;;;;5091796;28;19958;-75
2022/10/12 02:07:38;;;;;;;36.15;24.08;;;10.80;99.90;;;;;;5090766;28;20103;-74
2022/10/12 02:10:09;;;;;;;36.83;23.65;;;10.80;99.90;;;;;;5090187;28;20032;-75
2022/10/12 02:12:38;;;;;;;48.17;25.25;;;10.80;99.90;;;;;;5091504;28;20042;-75
2022/10/12 02:15:08;;;;;;;47.08;25.13;;;10.80;99.90;;;;;;5090726;28;20051;-75
2022/10/12 02:17:34;;;;;;;34.55;23.02;;;10.80;99.90;;;;;;5091405;28;20055;-74
2022/10/12 02:20:02;;;;;;;39.97;23.73;;;10.70;99.90;;;;;;5073046;28;20469;-74
2022/10/12 02:22:34;;;;;;;31.95;22.42;;;10.70;99.90;;;;;;5089953;28;20032;-74
2022/10/12 02:25:04;;;;;;;37.80;24.10;;;10.70;99.90;;;;;;5091464;28;20028;-74
2022/10/12 02:27:32;;;;;;;37.25;23.35;;;10.60;99.90;;;;;;5090878;28;20025;-74
2022/10/12 02:29:58;;;;;;;34.15;24.25;;;10.60;99.90;;;;;;5090784;28;20032;-75
2022/10/12 02:32:37;;;;;;;36.40;24.90;;;10.50;99.90;;;;;;5089905;28;20035;-74
2022/10/12 02:35:36;;;;;;;37.13;23.98;;;10.50;99.90;;;;;;5091409;28;20031;-74
2022/10/12 02:38:39;;;;;;;37.33;24.02;;;10.50;99.90;;;;;;5090565;28;20040;-74
2022/10/12 02:41:11;;;;;;;47.42;25.83;;;10.50;99.90;;;;;;5056462;28;20044;-74
2022/10/12 02:44:02;;;;;;;36.47;22.92;;;10.50;99.90;;;;;;5090887;28;20034;-74
2022/10/12 02:46:30;;;;;;;27.88;21.35;;;10.50;99.90;;;;;;5090043;28;20036;-74
2022/10/12 02:48:57;;;;;;;33.53;21.05;;;10.40;99.90;;;;;;5090994;28;20059;-74
2022/10/12 02:51:25;;;;;;;40.58;24.70;;;10.50;99.90;;;;;;5086545;28;20024;-75
2022/10/12 02:53:51;;;;;;;37.45;23.52;;;10.50;99.90;;;;;;5090633;28;20028;-74
2022/10/12 02:56:16;;;;;;;35.80;22.50;;;10.50;99.90;;;;;;5089755;28;20081;-74
2022/10/12 02:58:43;;;;;;;33.55;21.30;;;10.50;99.90;;;;;;5090805;28;20431;-74
2022/10/12 03:01:09;;;;;;;38.22;25.27;;;10.50;99.90;;;;;;5089139;28;20103;-74
2022/10/12 03:03:35;;;;;;;35.83;24.35;;;10.50;99.90;;;;;;5091110;28;20242;-74
2022/10/12 03:06:00;;;;;;;36.88;24.42;;;10.50;99.90;;;;;;5072350;28;20039;-74
2022/10/12 03:08:26;;;;;;;39.05;24.13;;;10.60;99.90;;;;;;5090097;28;20244;-74
2022/10/12 03:10:51;;;;;;;37.83;23.63;;;10.60;99.90;;;;;;5090479;28;20574;-74
2022/10/12 03:13:18;;;;;;;38.45;24.73;;;10.60;99.90;;;;;;5089742;28;20034;-74
2022/10/12 03:15:43;;;;;;;41.15;24.73;;;10.70;99.90;;;;;;5090375;28;20052;-74
2022/10/12 03:18:09;;;;;;;40.25;24.90;;;10.70;99.90;;;;;;5089635;28;20067;-74
2022/10/12 03:20:35;;;;;;;38.28;25.08;;;10.70;99.90;;;;;;5091156;28;20028;-74
2022/10/12 03:23:01;;;;;;;37.22;24.33;;;10.80;99.90;;;;;;5094441;28;20452;-74
2022/10/12 03:25:26;;;;;;;34.17;23.25;;;10.80;99.90;;;;;;5093285;28;20024;-74
2022/10/12 03:27:52;;;;;;;32.35;23.10;;;10.90;99.90;;;;;;5093804;28;20031;-74
2022/10/12 03:30:18;;;;;;;33.38;22.20;;;10.80;99.90;;;;;;5092904;28;20116;-74
2022/10/12 03:32:43;;;;;;;30.38;21.25;;;10.90;99.90;;;;;;5093941;28;20044;-74
2022/10/12 03:35:09;;;;;;;33.83;21.88;;;10.90;99.90;;;;;;5093264;28;20028;-74
2022/10/12 03:37:34;;;;;;;34.55;20.75;;;10.90;99.90;;;;;;5094338;28;20036;-73
2022/10/12 03:40:00;;;;;;;28.13;20.33;;;10.90;99.90;;;;;;5094800;28;20036;-74
2022/10/12 03:42:26;;;;;;;31.00;21.70;;;10.90;99.90;;;;;;5093147;28;20092;-73
2022/10/12 03:44:52;;;;;;;26.42;20.08;;;11.00;99.90;;;;;;5094332;28;20050;-73
2022/10/12 03:47:17;;;;;;;35.30;23.45;;;11.00;99.90;;;;;;5093922;28;20032;-73
2022/10/12 03:49:43;;;;;;;34.63;24.13;;;11.00;99.90;;;;;;5093922;28;20068;-73
2022/10/12 03:52:08;;;;;;;31.38;22.27;;;11.00;99.90;;;;;;5084902;28;20024;-73
2022/10/12 03:54:34;;;;;;;29.60;21.80;;;11.00;99.90;;;;;;5094014;28;20039;-73
2022/10/12 03:56:59;;;;;;;33.78;22.77;;;11.00;99.90;;;;;;5093953;28;20202;-73
2022/10/12 03:59:25;;;;;;;36.58;24.50;;;11.00;99.90;;;;;;5093451;28;20020;-73
2022/10/12 04:01:50;;;;;;;34.35;22.95;;;11.00;99.90;;;;;;5092580;28;20020;-73
2022/10/12 04:04:16;;;;;;;33.38;23.30;;;11.00;99.90;;;;;;5093550;28;20028;-73
2022/10/12 04:06:42;;;;;;;32.75;23.40;;;11.00;99.90;;;;;;5094141;28;20032;-73
2022/10/12 04:09:07;;;;;;;35.40;22.02;;;10.90;99.90;;;;;;5093722;28;20085;-74
2022/10/12 04:11:33;;;;;;;41.38;24.48;;;10.90;99.90;;;;;;5094415;28;20028;-73
2022/10/12 04:13:59;;;;;;;38.50;25.52;;;10.80;99.90;;;;;;5094050;28;20028;-73
2022/10/12 04:16:24;;;;;;;42.35;27.05;;;10.80;99.90;;;;;;5092851;28;20034;-74
2022/10/12 04:18:50;;;;;;;42.85;26.35;;;10.80;99.90;;;;;;5093754;28;20047;-73
2022/10/12 04:21:23;;;;;;;43.63;26.75;;;10.80;99.90;;;;;;5092686;28;20160;-74
2022/10/12 04:23:49;;;;;;;45.47;25.63;;;10.90;99.90;;;;;;5093255;28;20048;-74
2022/10/12 04:26:14;;;;;;;38.13;24.45;;;10.90;99.90;;;;;;5092219;28;20055;-74
2022/10/12 04:28:40;;;;;;;41.78;26.27;;;10.90;99.90;;;;;;5085365;28;20537;-73
2022/10/12 04:31:06;;;;;;;40.80;24.48;;;10.90;99.90;;;;;;5092049;28;20027;-75
2022/10/12 04:33:31;;;;;;;35.88;23.27;;;10.90;99.90;;;;;;5093500;28;20457;-74
2022/10/12 04:35:57;;;;;;;35.65;23.40;;;11.00;99.90;;;;;;5095169;28;20028;-74
2022/10/12 04:38:22;;;;;;;36.42;25.13;;;11.00;99.90;;;;;;5092875;28;20032;-74
2022/10/12 04:40:48;;;;;;;36.85;24.00;;;11.00;99.90;;;;;;5093571;28;20028;-75
2022/10/12 04:43:15;;;;;;;41.97;26.58;;;11.00;99.90;;;;;;5074845;28;20020;-74
2022/10/12 04:45:41;;;;;;;39.72;25.25;;;11.00;99.90;;;;;;5092606;28;20484;-74
2022/10/12 04:48:07;;;;;;;46.28;26.42;;;11.10;99.90;;;;;;5091731;28;20136;-74
2022/10/12 04:50:33;;;;;;;42.33;25.90;;;11.10;99.90;;;;;;5090963;28;20084;-74
2022/10/12 04:52:58;;;;;;;36.30;24.70;;;11.10;99.90;;;;;;5082982;28;20381;-75
2022/10/12 04:55:24;;;;;;;33.63;21.52;;;11.20;99.90;;;;;;5091276;28;20144;-75
2022/10/12 04:57:49;;;;;;;38.28;23.65;;;11.20;99.90;;;;;;5087944;28;20036;-74
2022/10/12 05:00:16;;;;;;;33.60;24.10;;;11.20;99.90;;;;;;5090872;28;20039;-74
2022/10/12 05:02:41;;;;;;;36.60;23.73;;;11.20;99.90;;;;;;5092248;28;20051;-74
2022/10/12 05:05:08;;;;;;;32.47;23.38;;;11.20;99.90;;;;;;5091332;28;20457;-73
2022/10/12 05:07:33;;;;;;;35.35;22.60;;;11.30;99.90;;;;;;5086954;28;20028;-74
2022/10/12 05:09:59;;;;;;;31.45;21.70;;;11.30;99.90;;;;;;5086437;28;20021;-74
2022/10/12 05:12:24;;;;;;;31.23;21.55;;;11.30;99.90;;;;;;5085035;28;20012;-74
2022/10/12 05:14:50;;;;;;;43.25;25.80;;;11.40;99.90;;;;;;5085090;28;20107;-74
2022/10/12 05:17:15;;;;;;;38.08;25.20;;;11.30;99.90;;;;;;5090950;28;20032;-74
2022/10/12 05:19:41;;;;;;;35.38;23.20;;;11.40;99.90;;;;;;5092142;28;20024;-70
2022/10/12 05:22:07;;;;;;;38.80;26.25;;;11.40;99.90;;;;;;5087867;28;20028;-74
2022/10/12 05:24:32;;;;;;;41.75;26.02;;;11.40;99.90;;;;;;5092150;28;20029;-73
2022/10/12 05:26:58;;;;;;;32.65;24.17;;;11.40;99.90;;;;;;5091455;28;20028;-72
2022/10/12 05:29:23;;;;;;;40.90;26.90;;;11.40;99.90;;;;;;5080040;28;20174;-75
2022/10/12 05:31:49;;;;;;;38.58;25.10;;;11.50;99.90;;;;;;5087282;28;20027;-75
2022/10/12 05:34:15;;;;;;;47.85;26.67;;;11.50;99.90;;;;;;5073367;28;20028;-76
2022/10/12 05:36:40;;;;;;;37.53;22.92;;;11.50;99.90;;;;;;5077625;28;20111;-76
2022/10/12 05:39:06;;;;;;;38.50;24.13;;;11.50;99.90;;;;;;5091452;28;20342;-75
2022/10/12 05:41:31;;;;;;;38.25;23.90;;;11.50;99.90;;;;;;5091021;28;20056;-71
2022/10/12 05:43:57;;;;;;;41.25;25.63;;;11.50;99.90;;;;;;5091393;28;20020;-74
2022/10/12 05:46:23;;;;;;;39.40;24.05;;;11.60;99.90;;;;;;5090339;28;20889;-77
2022/10/12 05:48:48;;;;;;;41.22;26.13;;;11.60;99.90;;;;;;5091127;28;20052;-75
2022/10/12 05:51:14;;;;;;;42.13;27.25;;;11.60;99.90;;;;;;5089881;28;20024;-73
2022/10/12 05:53:39;;;;;;;39.15;26.65;;;11.60;99.90;;;;;;5089618;28;20032;-74
2022/10/12 05:56:05;;;;;;;44.47;25.63;;;11.70;99.90;;;;;;5091168;28;20059;-72
2022/10/12 05:58:31;;;;;;;41.72;25.77;;;11.70;99.90;;;;;;5089447;28;20162;-72
2022/10/12 06:01:08;;;;;;;36.35;24.55;;;11.70;99.90;;;;;;5088220;28;20036;-70
2022/10/12 06:03:34;;;;;;;39.67;25.52;;;11.70;99.90;;;;;;5091141;28;20058;-69
2022/10/12 06:05:59;;;;;;;38.25;24.73;;;11.70;99.90;;;;;;5091074;28;20028;-68
2022/10/12 06:08:25;;;;;;;41.20;26.38;;;11.70;99.90;;;;;;5090465;28;20117;-73
2022/10/12 06:10:51;;;;;;;41.88;26.45;;;11.70;99.90;;;;;;5081304;28;20020;-72
2022/10/12 06:13:18;;;;;;;44.45;27.17;;;11.80;99.90;;;;;;5083992;28;20039;-71
2022/10/12 06:15:45;;;;;;;39.20;24.58;;;11.80;99.90;;;;;;5090765;28;20028;-71
2022/10/12 06:18:12;;;;;;;42.70;24.90;;;11.80;99.90;;;;;;5072078;28;20080;-72
2022/10/12 06:20:37;;;;;;;44.00;24.85;;;11.90;99.90;;;;;;5092307;28;20166;-72
2022/10/12 06:23:03;;;;;;;41.22;24.77;;;11.90;99.90;;;;;;5091354;28;20103;-77
2022/10/12 06:25:28;;;;;;;43.55;25.42;;;11.90;99.90;;;;;;5086768;28;20804;-77
2022/10/12 06:27:54;;;;;;;38.30;23.67;;;12.00;99.90;;;;;;5075616;28;20029;-72
2022/10/12 06:30:20;;;;;;;40.63;23.58;;;12.00;99.90;;;;;;5079454;28;20048;-72
2022/10/12 06:32:45;;;;;;;43.92;25.70;;;12.00;99.90;;;;;;5073152;28;20389;-70
2022/10/12 06:35:11;;;;;;;44.40;25.48;;;12.00;99.90;;;;;;5089118;28;20052;-70
2022/10/12 06:37:36;;;;;;;42.17;25.30;;;12.10;99.90;;;;;;5090551;28;20345;-71
2022/10/12 06:40:03;;;;;;;40.85;24.85;;;12.20;99.90;;;;;;5090720;28;20035;-71
2022/10/12 06:42:31;;;;;;;46.00;25.60;;;12.20;99.90;;;;;;5089742;28;20120;-71
2022/10/12 06:44:57;;;;;;;41.92;25.25;;;12.20;99.90;;;;;;5090575;28;20488;-71
2022/10/12 06:47:22;;;;;;;45.08;25.80;;;12.20;99.90;;;;;;5079404;28;20033;-71
2022/10/12 06:49:48;;;;;;;42.83;25.60;;;12.30;99.90;;;;;;5089803;28;20052;-71
2022/10/12 06:52:13;;;;;;;41.58;24.35;;;12.30;99.90;;;;;;5088993;28;20027;-71
2022/10/12 06:54:40;;;;;;;42.28;24.00;;;12.30;99.90;;;;;;5092132;28;20024;-71
2022/10/12 06:57:06;;;;;;;46.03;25.50;;;12.40;99.90;;;;;;5075831;28;20115;-71
2022/10/12 06:59:31;;;;;;;40.80;25.42;;;12.40;99.90;;;;;;5094426;28;20425;-71
2022/10/12 07:01:57;;;;;;;39.65;23.60;;;12.50;99.90;;;;;;5101420;28;20024;-71
2022/10/12 07:04:23;;;;;;;33.53;24.73;;;12.60;99.90;;;;;;5093737;28;20059;-71
2022/10/12 07:06:49;;;;;;;39.42;23.42;;;12.60;99.90;;;;;;5087992;28;20094;-71
2022/10/12 07:09:16;;;;;;;39.30;22.55;;;12.60;99.90;;;;;;5087329;28;20028;-71
2022/10/12 07:11:41;;;;;;;34.65;22.60;;;12.70;99.90;;;;;;5094063;28;20028;-71
2022/10/12 07:14:07;;;;;;;37.70;23.67;;;12.70;99.90;;;;;;5093724;28;20035;-71
2022/10/12 07:16:33;;;;;;;42.17;24.23;;;12.80;99.90;;;;;;5093582;28;20059;-71
2022/10/12 07:18:59;;;;;;;37.30;24.52;;;12.80;99.90;;;;;;5093923;28;20035;-71
2022/10/12 07:21:25;;;;;;;39.70;23.38;;;12.80;99.90;;;;;;5092956;28;20065;-71
2022/10/12 07:23:51;;;;;;;34.95;22.42;;;12.90;99.90;;;;;;5094066;28;20012;-71
2022/10/12 07:26:17;;;;;;;32.78;23.52;;;12.80;99.90;;;;;;5092263;28;20039;-71
2022/10/12 07:28:43;;;;;;;37.35;24.45;;;12.80;99.90;;;;;;5094565;28;20024;-71
2022/10/12 07:31:09;;;;;;;36.72;24.75;;;12.80;99.90;;;;;;5092730;28;20024;-72
2022/10/12 07:33:37;;;;;;;41.05;23.52;;;12.80;99.90;;;;;;5094042;28;20024;-72
2022/10/12 07:36:03;;;;;;;38.42;24.25;;;12.90;99.90;;;;;;5093458;28;20081;-72
2022/10/12 07:38:29;;;;;;;29.50;22.25;;;12.90;99.90;;;;;;5092871;28;20497;-72
2022/10/12 07:40:58;;;;;;;39.40;24.15;;;12.90;99.90;;;;;;5093236;28;20115;-71
2022/10/12 07:43:24;;;;;;;34.10;23.05;;;13.00;99.90;;;;;;5075007;28;20350;-72
2022/10/12 07:45:49;;;;;;;38.08;24.17;;;13.00;99.90;;;;;;5093277;28;20575;-72
2022/10/12 07:48:15;;;;;;;36.55;24.70;;;13.10;99.90;;;;;;5074386;28;20051;-72
2022/10/12 07:50:40;;;;;;;44.30;25.17;;;13.10;99.90;;;;;;5091320;28;20480;-72
2022/10/12 07:53:06;;;;;;;35.92;22.98;;;13.30;99.90;;;;;;5086857;28;20480;-72
2022/10/12 07:55:32;;;;;;;41.10;24.85;;;13.30;99.90;;;;;;5093271;28;20035;-72
2022/10/12 07:57:58;;;;;;;42.55;24.77;;;13.30;99.90;;;;;;5093892;28;20036;-72
2022/10/12 08:00:24;;;;;;;41.28;24.60;;;13.40;99.90;;;;;;5090934;28;20028;-72
2022/10/12 08:02:50;;;;;;;34.60;22.35;;;13.50;99.90;;;;;;5093719;28;20029;-71
2022/10/12 08:05:19;;;;;;;35.22;22.83;;;13.60;99.90;;;;;;5092229;28;20032;-72
2022/10/12 08:07:48;;;;;;;31.90;21.87;;;13.70;99.90;;;;;;5091344;28;20059;-72
2022/10/12 08:10:14;;;;;;;34.28;22.30;;;13.80;99.90;;;;;;5080980;28;20580;-71
2022/10/12 08:12:40;;;;;;;36.30;22.38;;;14.00;99.90;;;;;;5080591;28;20027;-71
2022/10/12 08:15:06;;;;;;;35.28;21.95;;;14.20;99.90;;;;;;5092569;28;20107;-72
2022/10/12 08:17:32;;;;;;;35.75;23.20;;;14.20;99.90;;;;;;5091940;28;20059;-71
2022/10/12 08:19:57;;;;;;;33.08;22.13;;;14.40;99.90;;;;;;5074991;28;20028;-71
2022/10/12 08:22:25;;;;;;;36.90;21.80;;;14.50;99.90;;;;;;5091810;28;20020;-71
2022/10/12 08:24:51;;;;;;;32.10;21.35;;;14.60;99.90;;;;;;5092820;28;20428;-72
2022/10/12 08:27:17;;;;;;;33.33;21.25;;;14.70;99.90;;;;;;5091631;28;20042;-72
2022/10/12 08:29:42;;;;;;;38.33;22.50;;;14.80;99.90;;;;;;5093288;28;20051;-71
2022/10/12 08:32:08;;;;;;;35.75;20.55;;;14.90;99.90;;;;;;5091394;28;20100;-70
2022/10/12 08:34:33;;;;;;;33.88;22.08;;;15.00;99.90;;;;;;5078937;28;20043;-70
2022/10/12 08:36:59;;;;;;;33.45;21.35;;;15.10;99.90;;;;;;5086414;28;20116;-70
2022/10/12 08:39:25;;;;;;;30.63;20.88;;;15.20;99.90;;;;;;5083188;28;20179;-70
2022/10/12 08:42:19;;;;;;;26.55;19.52;;;15.30;99.90;;;;;;5087159;28;20507;-71
2022/10/12 08:45:06;;;;;;;31.40;20.95;;;15.40;99.90;;;;;;5061232;28;20421;-71
2022/10/12 08:47:50;;;;;;;33.13;22.30;;;15.60;99.90;;;;;;5092069;28;20074;-71
2022/10/12 08:50:28;;;;;;;30.70;20.67;;;15.70;99.90;;;;;;5091215;28;20409;-71
2022/10/12 08:53:14;;;;;;;26.88;19.02;;;15.80;99.90;;;;;;5085391;28;20495;-72
2022/10/12 08:55:43;;;;;;;32.25;19.25;;;15.90;99.90;;;;;;5081182;28;20024;-73
2022/10/12 08:58:23;;;;;;;31.63;19.88;;;16.00;99.90;;;;;;5101292;28;20036;-72
2022/10/12 09:01:05;;;;;;;30.35;19.27;;;16.20;99.90;;;;;;5091663;28;20113;-70
2022/10/12 09:03:42;;;;;;;25.65;17.63;;;16.30;99.90;;;;;;5091886;28;20024;-71
2022/10/12 09:06:27;;;;;;;28.77;17.88;;;16.40;99.90;;;;;;5090879;28;20058;-71
2022/10/12 09:09:15;;;;;;;27.13;17.83;;;16.50;99.90;;;;;;5091858;28;20085;-71
2022/10/12 09:12:06;;;;;;;26.90;19.13;;;16.60;99.90;;;;;;5091813;28;20024;-70
2022/10/12 09:14:35;;;;;;;29.73;17.55;;;16.70;99.90;;;;;;5091975;28;20016;-71
2022/10/12 09:17:39;;;;;;;31.00;17.17;;;16.70;99.90;;;;;;5091015;28;20024;-72
2022/10/12 09:20:17;;;;;;;29.90;16.23;;;16.70;99.90;;;;;;5034031;28;20047;-71
2022/10/12 09:22:52;;;;;;;20.90;13.77;;;16.80;99.90;;;;;;5092025;28;20487;-71
2022/10/12 09:25:25;;;;;;;20.38;14.70;;;16.80;99.90;;;;;;5091132;28;20024;-71
2022/10/12 09:27:51;;;;;;;21.70;14.65;;;16.80;99.90;;;;;;5080921;28;20124;-72
2022/10/12 09:30:19;;;;;;;26.30;15.50;;;16.90;99.90;;;;;;5089942;28;20016;-71
2022/10/12 09:33:14;;;;;;;24.00;15.35;;;16.80;99.90;;;;;;5091421;28;20099;-71
2022/10/12 09:35:41;;;;;;;20.10;13.68;;;16.80;99.90;;;;;;5086071;28;20526;-71
2022/10/12 09:38:09;;;;;;;23.02;14.35;;;16.70;99.90;;;;;;5090751;28;20389;-74
2022/10/12 09:40:35;;;;;;;22.17;14.43;;;16.70;99.90;;;;;;5073017;28;20032;-73
2022/10/12 09:43:02;;;;;;;25.75;14.00;;;16.60;99.90;;;;;;5091674;28;20030;-73
2022/10/12 09:45:31;;;;;;;16.73;12.25;;;16.60;99.90;;;;;;5090365;28;20260;-73
2022/10/12 09:48:18;;;;;;;22.33;13.63;;;16.60;99.90;;;;;;5091195;28;20043;-72
2022/10/12 09:51:02;;;;;;;23.92;14.05;;;16.60;99.90;;;;;;5088258;28;20025;-72
2022/10/12 09:53:40;;;;;;;21.65;13.93;;;16.60;99.90;;;;;;5087285;28;20032;-71
2022/10/12 09:56:11;;;;;;;28.15;16.02;;;16.60;99.90;;;;;;5083900;28;20032;-72
2022/10/12 09:59:26;;;;;;;20.13;12.93;;;16.70;99.90;;;;;;5089941;28;20036;-72
2022/10/12 10:02:08;;;;;;;22.10;14.52;;;16.70;99.90;;;;;;5085296;28;20044;-72
2022/10/12 10:04:34;;;;;;;25.30;14.35;;;16.70;99.90;;;;;;5091231;28;20032;-72
2022/10/12 10:07:17;;;;;;;26.02;14.70;;;16.70;99.90;;;;;;5090778;28;20473;-72
2022/10/12 10:09:43;;;;;;;25.65;13.45;;;16.70;99.90;;;;;;5090720;28;20024;-71
2022/10/12 10:12:24;;;;;;;20.83;12.07;;;16.70;99.90;;;;;;5089493;28;20142;-72
2022/10/12 10:14:52;;;;;;;19.15;12.50;;;16.70;99.90;;;;;;5090476;28;20073;-71
2022/10/12 10:17:30;;;;;;;24.95;12.57;;;16.70;99.90;;;;;;5071237;28;20035;-72
2022/10/12 10:19:57;;;;;;;22.83;12.68;;;16.70;99.90;;;;;;5091114;28;20350;-71
2022/10/12 10:22:24;;;;;;;15.45;11.00;;;16.80;99.90;;;;;;5089716;28;20020;-72
2022/10/12 10:24:56;;;;;;;23.50;12.80;;;16.80;99.90;;;;;;5091121;28;20032;-71
2022/10/12 10:27:30;;;;;;;21.88;12.75;;;16.90;99.90;;;;;;5087164;28;20024;-72
2022/10/12 10:30:17;;;;;;;15.85;10.73;;;16.90;99.90;;;;;;5093264;28;20032;-72
2022/10/12 10:32:44;;;;;;;20.23;11.15;;;16.80;99.90;;;;;;5094364;28;20028;-72
2022/10/12 10:35:12;;;;;;;24.00;11.63;;;16.90;99.90;;;;;;5093547;28;20024;-72
2022/10/12 10:37:50;;;;;;;15.10;11.10;;;17.00;99.90;;;;;;5094887;28;20040;-71
2022/10/12 10:40:34;;;;;;;16.55;10.48;;;17.00;99.90;;;;;;5093739;28;20056;-72
2022/10/12 10:43:19;;;;;;;18.17;10.40;;;17.20;99.90;;;;;;5095183;28;20095;-71
2022/10/12 10:45:49;;;;;;;16.60;10.50;;;17.20;99.90;;;;;;5081475;28;20055;-71
2022/10/12 10:48:19;;;;;;;21.67;11.88;;;17.30;99.90;;;;;;5093286;28;20490;-71
2022/10/12 10:50:51;;;;;;;19.65;11.38;;;17.30;99.90;;;;;;5094802;28;20020;-71
2022/10/12 10:53:23;;;;;;;17.70;9.73;;;17.30;99.90;;;;;;5093524;28;20020;-72
2022/10/12 10:56:03;;;;;;;19.92;11.93;;;17.40;99.90;;;;;;5093863;28;20477;-71
2022/10/12 10:58:33;;;;;;;24.20;11.32;;;17.50;99.90;;;;;;5093665;28;20459;-72
2022/10/12 11:01:18;;;;;;;16.98;10.70;;;17.60;99.90;;;;;;5094224;28;20074;-71
2022/10/12 11:04:14;;;;;;;19.85;10.05;;;17.50;99.90;;;;;;5094854;28;20042;-72
2022/10/12 11:06:43;;;;;;;16.23;10.73;;;17.60;99.90;;;;;;5091551;28;20035;-71
2022/10/12 11:09:32;;;;;;;15.45;9.70;;;17.60;99.90;;;;;;5093863;28;20060;-72
2022/10/12 11:12:20;;;;;;;14.75;9.73;;;17.70;99.90;;;;;;5094292;28;20038;-72
2022/10/12 11:14:54;;;;;;;14.15;9.70;;;17.70;99.90;;;;;;5094232;28;20078;-72
2022/10/12 11:17:42;;;;;;;15.27;10.18;;;17.80;99.90;;;;;;5092866;28;20021;-72
2022/10/12 11:20:33;;;;;;;15.25;10.80;;;17.90;99.90;;;;;;5093711;28;20028;-71
2022/10/12 11:23:17;;;;;;;15.23;9.20;;;17.90;99.90;;;;;;5082303;28;20024;-71
2022/10/12 11:25:55;;;;;;;17.98;11.15;;;17.90;99.90;;;;;;5090388;28;20020;-71
2022/10/12 11:28:24;;;;;;;16.33;9.95;;;18.00;99.90;;;;;;5086617;28;20024;-71
2022/10/12 11:30:52;;;;;;;16.25;9.93;;;18.00;99.90;;;;;;5093271;28;20095;-71
2022/10/12 11:33:26;;;;;;;14.02;8.23;;;18.10;99.90;;;;;;5093261;28;20040;-71
2022/10/12 11:35:54;;;;;;;13.00;9.00;;;18.20;99.90;;;;;;5080731;28;20107;-72
2022/10/12 11:38:44;;;;;;;15.10;9.30;;;18.30;99.90;;;;;;5092262;28;20103;-72
2022/10/12 11:41:29;;;;;;;12.23;8.55;;;18.30;99.90;;;;;;5091600;28;20028;-72
2022/10/12 11:44:02;;;;;;;16.27;9.10;;;18.30;99.90;;;;;;5089494;28;20032;-71
2022/10/12 11:46:36;;;;;;;14.15;8.30;;;18.40;99.90;;;;;;5087866;28;20035;-71
2022/10/12 11:49:19;;;;;;;14.88;9.43;;;18.50;99.90;;;;;;5092783;28;20040;-71
2022/10/12 11:51:48;;;;;;;19.13;9.90;;;18.50;99.90;;;;;;5093499;28;20032;-72
2022/10/12 11:54:22;;;;;;;11.85;7.93;;;18.50;99.90;;;;;;5092580;28;20055;-72
2022/10/12 11:56:51;;;;;;;13.88;8.57;;;18.50;99.90;;;;;;5074770;28;20461;-72
2022/10/12 11:59:31;;;;;;;19.55;10.05;;;18.60;99.90;;;;;;5085689;28;20044;-71
2022/10/12 12:02:16;;;;;;;14.10;8.77;;;18.60;99.90;;;;;;5093069;28;20012;-72
2022/10/12 12:04:44;;;;;;;17.30;9.93;;;18.50;99.90;;;;;;5092755;28;20039;-71
2022/10/12 12:07:37;;;;;;;18.20;9.00;;;18.40;99.90;;;;;;5087794;28;20052;-72
2022/10/12 12:10:33;;;;;;;16.40;9.25;;;18.40;99.90;;;;;;5081497;28;20103;-72
2022/10/12 12:13:25;;;;;;;17.33;10.15;;;18.40;99.90;;;;;;5092975;28;20032;-71
2022/10/12 12:15:51;;;;;;;15.85;9.10;;;18.40;99.90;;;;;;5080631;28;20146;-71
2022/10/12 12:18:22;;;;;;;15.65;9.07;;;18.30;99.90;;;;;;5092071;28;20573;-72
2022/10/12 12:20:47;;;;;;;18.77;8.52;;;18.30;99.90;;;;;;5092489;28;20035;-72
2022/10/12 12:23:30;;;;;;;18.65;9.15;;;18.20;99.90;;;;;;5091101;28;20103;-71
2022/10/12 12:26:05;;;;;;;14.48;9.45;;;18.30;99.90;;;;;;5091577;28;20105;-72
2022/10/12 12:28:31;;;;;;;9.95;7.43;;;18.30;99.90;;;;;;5091633;28;20036;-70
2022/10/12 12:31:00;;;;;;;14.32;10.10;;;18.40;99.90;;;;;;5085015;28;20562;-71
2022/10/12 12:33:31;;;;;;;16.10;9.47;;;18.50;99.90;;;;;;5092146;28;20028;-71
2022/10/12 12:36:03;;;;;;;13.57;7.88;;;18.50;99.90;;;;;;5092113;28;20028;-71
2022/10/12 12:38:28;;;;;;;15.63;8.48;;;18.40;99.90;;;;;;5091501;28;20036;-72
2022/10/12 12:41:02;;;;;;;14.18;7.38;;;18.40;99.90;;;;;;5092392;28;20031;-71
2022/10/12 12:43:27;;;;;;;18.23;8.05;;;18.50;99.90;;;;;;5091602;28;20028;-71
2022/10/12 12:46:12;;;;;;;15.63;8.52;;;18.50;99.90;;;;;;5092033;28;20050;-71